Time;durP1;ratioP1;P1;durP2;ratioP2;P2;SDS_P1;SDS_P2;PMS_P1;PMS_P2;Temp;Humidity;BMP_temperature;BMP_pressure;BME280_temperature;BME280_humidity;BME280_pressure;Samples;Min_cycle;Max_cycle;Signal;HPM_P1;HPM_P2
2021/12/15 00:01:22;;;;;;;116.97;43.97;;;10.20;99.90;;;;;;4923638;29;20051;-93
2021/12/15 00:03:47;;;;;;;152.02;57.22;;;8.90;99.90;;;;;;4919745;29;20052;-92
2021/12/15 00:06:17;;;;;;;129.53;57.03;;;9.60;99.90;;;;;;4919789;29;20136;-94
2021/12/15 00:08:46;;;;;;;107.27;40.27;;;8.90;99.90;;;;;;4903543;29;20538;-94
2021/12/15 00:11:22;;;;;;;112.40;43.47;;;9.60;99.90;;;;;;4904419;29;20048;-95
2021/12/15 00:13:50;;;;;;;115.47;45.03;;;9.50;99.90;;;;;;4904165;29;20545;-93
2021/12/15 00:16:17;;;;;;;113.17;42.70;;;9.40;99.90;;;;;;4904015;29;20107;-92
2021/12/15 00:18:44;;;;;;;100.90;40.10;;;9.20;99.90;;;;;;4904380;29;20052;-95
2021/12/15 00:21:13;;;;;;;101.73;39.10;;;10.10;99.90;;;;;;4903783;29;20409;-94
2021/12/15 00:23:40;;;;;;;101.17;38.87;;;9.50;99.90;;;;;;4903073;29;20044;-94
2021/12/15 00:26:06;;;;;;;91.50;38.40;;;8.90;99.90;;;;;;4903889;29;20048;-90
2021/12/15 00:28:32;;;;;;;93.10;36.90;;;9.30;99.90;;;;;;4906990;29;20098;-94
2021/12/15 00:30:58;;;;;;;99.07;37.40;;;9.40;99.90;;;;;;4905985;29;20184;-93
2021/12/15 00:33:24;;;;;;;90.13;34.47;;;9.90;99.90;;;;;;4907712;29;20456;-93
2021/12/15 00:35:50;;;;;;;92.17;37.97;;;10.20;99.90;;;;;;4904128;29;20051;-94
2021/12/15 00:38:16;;;;;;;92.20;36.07;;;10.30;99.90;;;;;;4904454;29;20052;-95
2021/12/15 00:40:42;;;;;;;100.00;36.40;;;9.50;99.90;;;;;;4905703;29;20052;-92
2021/12/15 00:43:10;;;;;;;92.87;35.83;;;9.40;99.90;;;;;;4905970;29;20107;-94
2021/12/15 00:45:44;;;;;;;105.37;37.90;;;9.50;99.90;;;;;;4907128;29;20052;-94
2021/12/15 00:48:10;;;;;;;91.67;37.37;;;9.60;99.90;;;;;;4903269;29;20501;-93
2021/12/15 00:50:47;;;;;;;96.33;38.00;;;9.00;99.90;;;;;;4904886;29;20055;-92
2021/12/15 00:53:28;;;;;;;99.20;37.63;;;10.30;99.90;;;;;;4905562;29;20055;-95
2021/12/15 00:56:06;;;;;;;84.00;33.97;;;9.40;99.90;;;;;;4903515;29;20048;-93
2021/12/15 00:58:32;;;;;;;87.33;34.70;;;9.90;99.90;;;;;;4905064;29;20059;-94
2021/12/15 01:01:07;;;;;;;93.43;35.60;;;9.20;99.90;;;;;;4904766;29;20032;-93
2021/12/15 01:03:33;;;;;;;89.27;34.57;;;9.00;99.90;;;;;;4904310;29;20044;-91
2021/12/15 01:06:09;;;;;;;91.50;35.40;;;9.10;99.90;;;;;;4903297;29;20044;-92
2021/12/15 01:08:42;;;;;;;94.33;36.67;;;9.50;99.90;;;;;;4886809;29;20052;-94
2021/12/15 01:11:21;;;;;;;96.40;35.40;;;9.30;99.90;;;;;;4886224;29;20136;-95
2021/12/15 01:22:36;;;;;;;82.33;33.07;;;9.40;99.90;;;;;;4892783;29;20043;-93
2021/12/15 01:25:23;;;;;;;95.67;34.77;;;9.30;99.90;;;;;;4903656;29;20044;-94
2021/12/15 01:27:51;;;;;;;86.87;33.43;;;9.50;99.90;;;;;;4886403;29;20077;-95
2021/12/15 01:30:27;;;;;;;94.83;32.03;;;10.10;99.90;;;;;;4886198;29;20048;-94
2021/12/15 01:33:03;;;;;;;90.70;32.73;;;9.80;99.90;;;;;;4902074;29;20096;-94
2021/12/15 01:35:30;;;;;;;96.75;32.35;;;10.20;99.90;;;;;;4893411;29;20044;-93
2021/12/15 01:37:55;;;;;;;103.20;32.93;;;8.90;99.90;;;;;;4888070;29;20086;-93
2021/12/15 01:40:33;;;;;;;92.33;33.00;;;9.40;99.90;;;;;;4883771;29;20091;-93
2021/12/15 01:43:02;;;;;;;106.17;34.47;;;9.20;99.90;;;;;;4886984;29;20109;-94
2021/12/15 01:48:27;;;;;;;92.83;33.27;;;9.40;99.90;;;;;;4886225;29;20119;-95
2021/12/15 01:50:53;;;;;;;98.70;33.80;;;10.40;99.90;;;;;;4886282;29;20044;-93
2021/12/15 01:53:27;;;;;;;96.70;34.97;;;10.60;99.90;;;;;;4885384;29;20040;-94
2021/12/15 01:56:06;;;;;;;98.90;33.88;;;9.40;99.90;;;;;;4884301;29;20439;-93
2021/12/15 01:58:48;;;;;;;95.43;31.97;;;9.00;99.90;;;;;;4885648;29;20048;-93
2021/12/15 02:01:24;;;;;;;89.63;33.13;;;9.80;99.90;;;;;;4885666;29;20106;-94
2021/12/15 02:03:55;;;;;;;98.33;33.70;;;9.30;99.90;;;;;;4885409;29;20048;-92
2021/12/15 02:06:25;;;;;;;97.47;32.37;;;9.50;99.90;;;;;;4889133;29;20103;-93
2021/12/15 02:10:01;;;;;;;83.70;31.27;;;9.40;99.90;;;;;;4921216;29;20048;-94
2021/12/15 02:12:05;;;;;;;87.50;30.75;;;10.20;99.90;;;;;;4919325;29;20056;-94
2021/12/15 02:14:33;;;;;;;96.37;31.17;;;9.50;99.90;;;;;;4904748;29;20136;-94
2021/12/15 02:16:59;;;;;;;100.17;32.60;;;9.40;99.90;;;;;;4904595;29;20052;-94
2021/12/15 02:19:25;;;;;;;91.00;31.70;;;8.70;99.90;;;;;;4904045;29;20067;-94
2021/12/15 02:21:59;;;;;;;88.17;30.67;;;9.50;99.90;;;;;;4904502;29;20052;-93
2021/12/15 02:24:25;;;;;;;86.07;29.23;;;9.50;99.90;;;;;;4904848;29;20139;-94
2021/12/15 02:26:57;;;;;;;80.83;29.37;;;9.40;99.90;;;;;;4916230;29;20028;-94
2021/12/15 02:29:23;;;;;;;87.03;29.07;;;9.20;99.90;;;;;;4924750;29;20039;-92
2021/12/15 02:32:18;;;;;;;78.10;28.93;;;9.30;99.90;;;;;;4923640;29;20043;-92
2021/12/15 02:37:28;;;;;;;92.53;30.27;;;9.40;99.90;;;;;;4903788;29;20409;-95
2021/12/15 02:40:02;;;;;;;77.77;29.20;;;10.20;99.90;;;;;;4903899;29;20501;-94
2021/12/15 02:42:40;;;;;;;72.47;28.58;;;9.30;99.90;;;;;;4906756;29;20131;-94
2021/12/15 02:45:11;;;;;;;85.77;31.30;;;9.50;99.90;;;;;;4904695;29;20143;-93
2021/12/15 02:47:37;;;;;;;80.37;28.30;;;9.50;99.90;;;;;;4906439;29;20086;-95
2021/12/15 02:50:06;;;;;;;85.17;30.03;;;9.90;99.90;;;;;;4906295;29;20052;-96
2021/12/15 02:52:33;;;;;;;74.10;28.80;;;9.40;99.90;;;;;;4905199;29;20125;-94
2021/12/15 02:54:59;;;;;;;86.37;30.50;;;9.80;99.90;;;;;;4907032;29;20103;-95
2021/12/15 02:57:24;;;;;;;72.80;28.63;;;8.90;99.90;;;;;;4903791;29;20457;-94
2021/12/15 03:00:02;;;;;;;75.93;29.33;;;9.60;99.90;;;;;;4907442;29;20044;-94
2021/12/15 03:03:47;;;;;;;73.40;29.17;;;9.30;99.90;;;;;;4924969;29;20060;-92
2021/12/15 03:07:58;;;;;;;83.37;29.17;;;9.60;99.90;;;;;;4938603;29;20127;-95
2021/12/15 03:15:54;;;;;;;79.90;28.50;;;9.40;99.90;;;;;;4943092;29;20043;-93
2021/12/15 03:18:22;;;;;;;76.83;28.67;;;10.10;99.90;;;;;;4952161;29;20042;-93
2021/12/15 03:20:56;;;;;;;75.43;27.70;;;9.30;99.90;;;;;;4958265;29;20044;-93
2021/12/15 03:23:44;;;;;;;82.63;28.37;;;10.00;99.90;;;;;;4941449;29;20050;-93
2021/12/15 03:26:12;;;;;;;88.70;29.20;;;9.30;99.90;;;;;;4943673;29;20112;-94
2021/12/15 03:39:23;;;;;;;97.47;33.10;;;9.50;99.90;;;;;;4938879;29;20198;-93
2021/12/15 03:41:57;;;;;;;94.40;33.40;;;9.30;99.90;;;;;;4939543;29;20130;-94
2021/12/15 03:44:23;;;;;;;99.97;32.43;;;9.10;99.90;;;;;;4938498;29;20039;-95
2021/12/15 03:46:49;;;;;;;102.93;31.73;;;9.30;99.90;;;;;;4938940;29;20051;-91
2021/12/15 03:49:15;;;;;;;95.60;32.97;;;9.20;99.90;;;;;;4942128;29;20044;-92
2021/12/15 03:51:41;;;;;;;93.57;32.80;;;10.00;99.90;;;;;;4939338;29;20071;-94
2021/12/15 03:54:07;;;;;;;101.73;34.10;;;9.10;99.90;;;;;;4938501;29;20437;-94
2021/12/15 03:56:36;;;;;;;96.93;33.63;;;9.80;99.90;;;;;;4939362;29;20539;-94
2021/12/15 03:59:03;;;;;;;89.80;32.67;;;9.70;99.90;;;;;;4938520;29;20055;-95
2021/12/15 04:01:29;;;;;;;80.87;31.80;;;9.90;99.90;;;;;;4938036;29;20114;-91
2021/12/15 04:03:55;;;;;;;91.13;33.17;;;9.30;99.90;;;;;;4938049;29;20069;-94
2021/12/15 04:06:32;;;;;;;90.23;34.30;;;9.00;99.90;;;;;;4937329;29;20411;-93
2021/12/15 04:08:59;;;;;;;96.00;33.60;;;9.40;99.90;;;;;;4921407;29;20097;-93
2021/12/15 04:11:28;;;;;;;98.40;35.03;;;9.50;99.90;;;;;;4921875;29;20090;-93
2021/12/15 04:13:59;;;;;;;100.53;36.83;;;9.40;99.90;;;;;;4923084;29;20516;-94
2021/12/15 04:19:01;;;;;;;108.25;37.50;;;9.20;99.90;;;;;;4923194;29;20056;-94
2021/12/15 04:21:27;;;;;;;105.13;36.43;;;9.70;99.90;;;;;;4924204;29;20496;-93
2021/12/15 04:23:55;;;;;;;104.57;36.23;;;8.60;99.90;;;;;;4923095;29;20130;-95
2021/12/15 04:26:21;;;;;;;93.07;35.10;;;9.20;99.90;;;;;;4922268;29;20052;-93
2021/12/15 04:28:47;;;;;;;94.47;35.67;;;8.90;99.90;;;;;;4922034;29;20488;-95
2021/12/15 04:31:18;;;;;;;92.67;34.83;;;9.60;99.90;;;;;;4922716;29;20489;-93
2021/12/15 04:33:54;;;;;;;98.27;35.20;;;9.30;99.90;;;;;;4921906;29;20083;-95
2021/12/15 04:36:23;;;;;;;97.50;37.40;;;9.30;99.90;;;;;;4922576;29;20161;-92
2021/12/15 04:38:49;;;;;;;106.47;36.77;;;9.30;99.90;;;;;;4922258;29;20458;-94
2021/12/15 04:41:17;;;;;;;108.20;37.23;;;10.20;99.90;;;;;;4922348;29;20110;-95
2021/12/15 04:43:45;;;;;;;111.07;37.83;;;10.00;99.90;;;;;;4922011;29;20052;-94
2021/12/15 04:46:11;;;;;;;99.57;38.90;;;9.40;99.90;;;;;;4921582;29;20052;-94
2021/12/15 04:48:41;;;;;;;105.10;39.37;;;8.70;99.90;;;;;;4921842;29;20102;-95
2021/12/15 04:51:07;;;;;;;93.80;38.27;;;9.60;99.90;;;;;;4921296;29;20138;-93
2021/12/15 04:53:34;;;;;;;103.07;37.73;;;10.10;99.90;;;;;;4921360;29;20151;-93
2021/12/15 04:56:00;;;;;;;108.97;39.10;;;10.20;99.90;;;;;;4922664;29;20063;-93
2021/12/15 04:58:25;;;;;;;100.82;38.53;;;10.30;99.90;;;;;;4921466;29;20503;-95
2021/12/15 05:00:56;;;;;;;102.70;39.50;;;9.70;99.90;;;;;;4916957;29;20131;-93
2021/12/15 05:03:22;;;;;;;110.60;40.23;;;10.20;99.90;;;;;;4902302;29;20056;-94
2021/12/15 05:05:48;;;;;;;107.30;39.53;;;10.10;99.90;;;;;;4901070;29;20631;-92
2021/12/15 05:08:14;;;;;;;107.73;39.70;;;10.30;99.90;;;;;;4913899;29;20102;-94
2021/12/15 05:10:40;;;;;;;98.50;39.30;;;9.50;99.90;;;;;;4919385;29;20111;-93
2021/12/15 05:13:07;;;;;;;96.67;39.43;;;9.60;99.90;;;;;;4921861;29;20047;-93
2021/12/15 05:15:34;;;;;;;106.57;40.43;;;9.60;99.90;;;;;;4941482;29;20020;-93
2021/12/15 05:17:59;;;;;;;98.37;39.13;;;10.10;99.90;;;;;;4926787;29;20527;-92
2021/12/15 05:20:26;;;;;;;99.83;39.77;;;9.30;99.90;;;;;;4920468;29;20136;-94
2021/12/15 05:22:53;;;;;;;93.17;36.77;;;8.90;99.90;;;;;;4920589;29;20040;-95
2021/12/15 05:25:20;;;;;;;112.37;41.53;;;10.20;99.90;;;;;;4941128;29;20056;-95
2021/12/15 05:27:46;;;;;;;110.87;42.20;;;9.00;99.90;;;;;;4922138;29;20052;-94
2021/12/15 05:30:16;;;;;;;115.00;42.40;;;9.30;99.90;;;;;;4919477;29;20474;-91
2021/12/15 05:32:41;;;;;;;109.30;42.17;;;9.20;99.90;;;;;;4929968;29;20040;-94
2021/12/15 05:35:10;;;;;;;111.80;41.77;;;8.70;99.90;;;;;;4941313;29;20052;-94
2021/12/15 05:37:37;;;;;;;102.10;40.33;;;9.20;99.90;;;;;;4941799;29;20044;-93
2021/12/15 05:40:04;;;;;;;106.60;43.07;;;9.40;99.90;;;;;;4937072;29;20048;-93
2021/12/15 05:42:30;;;;;;;97.77;39.47;;;9.30;99.90;;;;;;4918185;29;20054;-93
2021/12/15 05:45:01;;;;;;;104.47;41.80;;;9.40;99.90;;;;;;4917699;29;20048;-93
2021/12/15 05:47:27;;;;;;;103.30;41.27;;;9.50;99.90;;;;;;4917987;29;20112;-93
2021/12/15 05:49:55;;;;;;;107.30;44.17;;;9.60;99.90;;;;;;4916867;29;20465;-93
2021/12/15 05:52:22;;;;;;;94.97;41.70;;;10.00;99.90;;;;;;4917814;29;20108;-92
2021/12/15 05:54:48;;;;;;;101.10;43.63;;;9.60;99.90;;;;;;4916935;29;20044;-94
2021/12/15 05:57:14;;;;;;;106.30;42.20;;;9.00;99.90;;;;;;4918559;29;20050;-92
2021/12/15 05:59:40;;;;;;;100.22;41.65;;;9.90;99.90;;;;;;4919169;29;20099;-94
2021/12/15 06:02:07;;;;;;;104.30;43.37;;;10.00;99.90;;;;;;4918257;29;20079;-93
2021/12/15 06:04:33;;;;;;;103.77;42.30;;;10.40;99.90;;;;;;4918401;29;20047;-94
2021/12/15 06:06:59;;;;;;;105.80;42.43;;;10.00;99.90;;;;;;4917990;29;20063;-94
2021/12/15 06:09:25;;;;;;;100.33;41.20;;;9.60;99.90;;;;;;4918785;29;20408;-93
2021/12/15 06:11:53;;;;;;;98.47;42.00;;;9.40;99.90;;;;;;4917726;29;20528;-93
2021/12/15 06:14:28;;;;;;;101.73;43.17;;;9.60;99.90;;;;;;4918715;29;20052;-94
2021/12/15 06:17:01;;;;;;;114.43;45.07;;;9.50;99.90;;;;;;4918575;29;20051;-95
2021/12/15 06:19:27;;;;;;;109.63;44.37;;;9.60;99.90;;;;;;4918457;29;20134;-95
2021/12/15 06:21:54;;;;;;;103.53;44.30;;;9.90;99.90;;;;;;4916787;29;20299;-94
2021/12/15 06:24:19;;;;;;;99.43;41.97;;;9.30;99.90;;;;;;4933042;29;20055;-91
2021/12/15 06:26:45;;;;;;;105.43;42.57;;;9.80;99.90;;;;;;4917692;29;20035;-93
2021/12/15 06:29:11;;;;;;;102.67;42.27;;;9.80;99.90;;;;;;4920517;29;20086;-93
2021/12/15 06:31:38;;;;;;;105.10;44.13;;;10.10;99.90;;;;;;4918017;29;20401;-95
2021/12/15 06:34:05;;;;;;;99.90;41.77;;;9.30;99.90;;;;;;4917056;29;20055;-93
2021/12/15 06:36:32;;;;;;;101.40;43.17;;;10.00;99.90;;;;;;4918291;29;20054;-93
2021/12/15 06:38:57;;;;;;;112.47;43.67;;;8.60;99.90;;;;;;4917866;29;20131;-94
2021/12/15 06:41:28;;;;;;;99.63;43.40;;;8.70;99.90;;;;;;4917665;29;20086;-94
2021/12/15 06:43:57;;;;;;;108.90;43.10;;;9.10;99.90;;;;;;4916196;29;20044;-93
2021/12/15 06:59:53;;;;;;;97.80;40.43;;;10.00;99.90;;;;;;4917698;29;20147;-92
2021/12/15 07:02:19;;;;;;;99.67;42.23;;;9.20;99.90;;;;;;4916968;29;20071;-93
2021/12/15 07:04:48;;;;;;;93.10;40.53;;;10.10;99.90;;;;;;4916189;29;20096;-94
2021/12/15 07:07:14;;;;;;;95.53;39.93;;;10.30;99.90;;;;;;4917449;29;20064;-90
2021/12/15 07:09:39;;;;;;;96.43;40.60;;;9.90;99.90;;;;;;4917863;29;20100;-94
2021/12/15 07:12:26;;;;;;;103.27;41.70;;;9.80;99.90;;;;;;4939077;29;20028;-89
2021/12/15 07:14:52;;;;;;;99.07;40.97;;;9.30;99.90;;;;;;4916646;29;20068;-84
2021/12/15 07:17:22;;;;;;;103.33;40.70;;;10.00;99.90;;;;;;4916146;29;20059;-84
2021/12/15 07:20:04;;;;;;;104.20;41.63;;;9.20;99.90;;;;;;4917663;29;20036;-83
2021/12/15 07:22:37;;;;;;;101.80;42.30;;;9.60;99.90;;;;;;4915237;29;20473;-86
2021/12/15 07:25:05;;;;;;;89.53;38.80;;;9.80;99.90;;;;;;4914090;29;20052;-82
2021/12/15 07:27:31;;;;;;;98.93;41.07;;;9.30;99.90;;;;;;4916106;29;20162;-84
2021/12/15 07:29:56;;;;;;;96.97;40.47;;;9.40;99.90;;;;;;4916044;29;20060;-83
2021/12/15 07:32:22;;;;;;;101.03;40.17;;;9.30;99.90;;;;;;4915396;29;20044;-84
2021/12/15 07:34:48;;;;;;;92.23;38.97;;;9.30;99.90;;;;;;4914198;29;20087;-84
2021/12/15 07:37:13;;;;;;;103.33;42.00;;;9.30;99.90;;;;;;4914441;29;20048;-83
2021/12/15 07:39:44;;;;;;;97.93;40.97;;;9.30;99.90;;;;;;4915350;29;20048;-82
2021/12/15 07:42:12;;;;;;;91.33;36.80;;;9.40;99.90;;;;;;4914490;29;20072;-84
2021/12/15 07:44:38;;;;;;;102.30;41.33;;;9.30;99.90;;;;;;4917439;29;20485;-83
2021/12/15 07:47:05;;;;;;;96.43;39.03;;;9.30;99.90;;;;;;4918240;29;20055;-83
2021/12/15 07:49:32;;;;;;;97.43;40.00;;;9.40;99.90;;;;;;4933668;29;20166;-83
2021/12/15 07:52:03;;;;;;;92.37;37.67;;;9.40;99.90;;;;;;4919161;29;20048;-82
2021/12/15 07:54:35;;;;;;;95.57;39.83;;;9.40;99.90;;;;;;4918439;29;20051;-83
2021/12/15 07:57:09;;;;;;;84.53;37.27;;;9.40;99.90;;;;;;4917580;29;20052;-82
2021/12/15 07:59:35;;;;;;;94.47;39.57;;;9.40;99.90;;;;;;4918109;29;20161;-83
2021/12/15 08:02:01;;;;;;;98.07;39.17;;;9.40;99.90;;;;;;4918567;29;20405;-83
2021/12/15 08:04:27;;;;;;;98.63;40.45;;;9.40;99.90;;;;;;4917768;29;20052;-83
2021/12/15 08:06:53;;;;;;;83.57;35.90;;;9.40;99.90;;;;;;4916538;29;20071;-82
2021/12/15 08:09:20;;;;;;;87.03;37.90;;;9.40;99.90;;;;;;4935683;29;20051;-83
2021/12/15 08:11:46;;;;;;;85.00;36.87;;;9.40;99.90;;;;;;4936026;29;20051;-83
2021/12/15 08:14:12;;;;;;;100.67;44.80;;;9.40;99.90;;;;;;4937247;29;20122;-83
2021/12/15 08:16:37;;;;;;;96.27;40.67;;;9.40;99.90;;;;;;4936454;29;20135;-83
2021/12/15 08:19:03;;;;;;;95.40;38.90;;;9.40;99.90;;;;;;4937453;29;20036;-83
2021/12/15 08:21:29;;;;;;;93.63;38.93;;;9.40;99.90;;;;;;4936880;29;20496;-83
2021/12/15 08:23:55;;;;;;;98.47;39.80;;;9.40;99.90;;;;;;4935908;29;20568;-82
2021/12/15 08:26:21;;;;;;;92.87;39.73;;;9.40;99.90;;;;;;4936405;29;20052;-82
2021/12/15 08:28:47;;;;;;;87.55;38.97;;;9.40;99.90;;;;;;4935109;29;20493;-83
2021/12/15 08:31:13;;;;;;;98.03;41.60;;;9.40;99.90;;;;;;4936085;29;20052;-83
2021/12/15 08:33:39;;;;;;;93.43;40.83;;;9.50;99.90;;;;;;4936392;29;20106;-83
2021/12/15 08:36:11;;;;;;;93.20;44.40;;;9.50;99.90;;;;;;4937795;29;20043;-83
2021/12/15 08:38:39;;;;;;;95.20;45.50;;;9.50;99.90;;;;;;4961212;29;20031;-82
2021/12/15 08:41:09;;;;;;;90.43;40.57;;;9.50;99.90;;;;;;4948369;29;20111;-84
2021/12/15 08:43:36;;;;;;;87.83;38.93;;;9.40;99.90;;;;;;4939860;29;20086;-83
2021/12/15 08:46:09;;;;;;;93.40;44.43;;;9.50;99.90;;;;;;4936080;29;20060;-83
2021/12/15 08:48:35;;;;;;;74.95;35.78;;;9.50;99.90;;;;;;4936971;29;20492;-83
2021/12/15 08:51:03;;;;;;;89.07;38.60;;;9.50;99.90;;;;;;4935109;29;20139;-82
2021/12/15 08:53:29;;;;;;;86.90;38.47;;;9.50;99.90;;;;;;4936941;29;20047;-83
2021/12/15 08:55:55;;;;;;;85.93;38.20;;;9.50;99.90;;;;;;4935624;29;20055;-83
2021/12/15 08:58:23;;;;;;;81.80;36.67;;;9.50;99.90;;;;;;4937086;29;20098;-86
2021/12/15 09:00:51;;;;;;;119.43;64.77;;;9.60;99.90;;;;;;4935647;29;20458;-83
2021/12/15 09:03:18;;;;;;;95.80;48.07;;;9.60;99.90;;;;;;4934275;29;20032;-83
2021/12/15 09:05:44;;;;;;;80.97;35.77;;;9.60;99.90;;;;;;4936329;29;20040;-84
2021/12/15 09:08:11;;;;;;;82.70;38.83;;;9.60;99.90;;;;;;4937216;29;20107;-86
2021/12/15 09:10:42;;;;;;;85.90;40.03;;;9.60;99.90;;;;;;4934435;29;20083;-83
2021/12/15 09:13:08;;;;;;;81.50;35.93;;;9.60;99.90;;;;;;4936647;29;20059;-83
2021/12/15 09:15:35;;;;;;;83.28;38.42;;;9.60;99.90;;;;;;4936470;29;20078;-83
2021/12/15 09:18:00;;;;;;;89.93;37.57;;;9.60;99.90;;;;;;4934461;29;20996;-83
2021/12/15 09:20:29;;;;;;;73.37;34.97;;;9.70;99.90;;;;;;4935543;29;20079;-82
2021/12/15 09:22:57;;;;;;;81.67;35.80;;;9.60;99.90;;;;;;4934860;29;20066;-83
2021/12/15 09:25:24;;;;;;;80.67;35.77;;;9.60;99.90;;;;;;4934214;29;20044;-82
2021/12/15 09:27:50;;;;;;;84.40;36.57;;;9.70;99.90;;;;;;4935193;29;20067;-83
2021/12/15 09:30:20;;;;;;;85.07;36.57;;;9.70;99.90;;;;;;4935057;29;20089;-83
2021/12/15 09:32:47;;;;;;;75.77;35.93;;;9.70;99.90;;;;;;4934021;29;20044;-83
2021/12/15 09:35:14;;;;;;;81.53;36.57;;;9.70;99.90;;;;;;4934889;29;20048;-83
2021/12/15 09:37:40;;;;;;;84.70;39.83;;;9.70;99.90;;;;;;4936154;29;20496;-83
2021/12/15 09:40:07;;;;;;;79.30;36.05;;;9.70;99.90;;;;;;4934339;29;20047;-83
2021/12/15 09:42:37;;;;;;;76.10;35.22;;;9.80;99.90;;;;;;4934563;29;20431;-83
2021/12/15 09:45:49;;;;;;;81.63;36.03;;;9.70;99.90;;;;;;4936321;29;20130;-83
2021/12/15 09:56:35;;;;;;;77.30;36.83;;;9.80;99.90;;;;;;4934633;29;20085;-82
2021/12/15 10:02:04;;;;;;;79.90;36.87;;;9.90;99.90;;;;;;4934411;29;20059;-83
2021/12/15 10:18:42;;;;;;;67.30;33.23;;;10.00;99.90;;;;;;4934413;29;20564;-83
2021/12/15 10:21:18;;;;;;;71.50;34.22;;;10.00;99.90;;;;;;4933418;29;20056;-83
2021/12/15 10:23:45;;;;;;;69.13;34.87;;;10.00;99.90;;;;;;4934093;29;20042;-83
2021/12/15 10:26:11;;;;;;;69.13;33.35;;;10.00;99.90;;;;;;4934253;29;20048;-83
2021/12/15 10:28:38;;;;;;;66.97;33.43;;;10.00;99.90;;;;;;4933458;29;20044;-83
2021/12/15 10:31:11;;;;;;;66.22;33.13;;;10.00;99.90;;;;;;4934067;29;20134;-83
2021/12/15 10:33:43;;;;;;;71.90;33.50;;;10.00;99.90;;;;;;4934364;29;20493;-83
2021/12/15 10:36:22;;;;;;;69.97;33.73;;;10.00;99.90;;;;;;4933619;29;20044;-83
2021/12/15 10:38:56;;;;;;;69.22;33.90;;;10.00;99.90;;;;;;4935055;29;20095;-83
2021/12/15 10:41:22;;;;;;;70.93;32.85;;;10.00;99.90;;;;;;4935463;29;20044;-83
2021/12/15 10:44:02;;;;;;;69.77;33.57;;;10.70;99.90;;;;;;4934343;29;20058;-83
2021/12/15 10:46:38;;;;;;;66.93;30.75;;;9.90;99.90;;;;;;4934139;29;20066;-83
2021/12/15 10:49:11;;;;;;;66.03;32.80;;;9.90;99.90;;;;;;4933132;29;20130;-83
2021/12/15 10:51:43;;;;;;;66.70;32.80;;;9.90;99.90;;;;;;4933980;29;20048;-83
2021/12/15 10:54:13;;;;;;;65.38;31.50;;;9.90;99.90;;;;;;4935207;29;20484;-83
2021/12/15 10:57:03;;;;;;;60.78;28.83;;;9.90;99.90;;;;;;4934501;29;20132;-82
2021/12/15 10:59:33;;;;;;;69.93;32.83;;;9.90;99.90;;;;;;4930388;29;20126;-82
2021/12/15 11:02:06;;;;;;;68.97;37.60;;;9.90;99.90;;;;;;4934475;29;20052;-82
2021/12/15 11:04:43;;;;;;;65.40;34.50;;;9.90;99.90;;;;;;4933116;29;20059;-82
2021/12/15 11:07:29;;;;;;;59.63;31.47;;;9.90;99.90;;;;;;4933684;29;20062;-83
2021/12/15 11:10:02;;;;;;;68.33;33.87;;;10.00;99.90;;;;;;4932891;29;20531;-84
2021/12/15 11:12:40;;;;;;;59.40;30.70;;;10.00;99.90;;;;;;4934279;29;20043;-83
2021/12/15 11:15:17;;;;;;;57.40;30.43;;;10.00;99.90;;;;;;4934043;29;20048;-82
2021/12/15 11:17:57;;;;;;;53.77;27.27;;;10.10;99.90;;;;;;4932749;29;20048;-81
2021/12/15 11:20:27;;;;;;;57.80;33.20;;;10.10;99.90;;;;;;4936475;29;20051;-82
2021/12/15 11:22:55;;;;;;;56.57;31.07;;;10.20;99.90;;;;;;4937271;29;20047;-83
2021/12/15 11:25:27;;;;;;;60.13;33.30;;;10.20;99.90;;;;;;4936940;29;20043;-83
2021/12/15 11:28:07;;;;;;;57.67;31.87;;;10.20;99.90;;;;;;4936741;29;20052;-84
2021/12/15 11:30:53;;;;;;;52.50;29.13;;;10.30;99.90;;;;;;4937224;29;20072;-85
2021/12/15 11:33:29;;;;;;;51.20;26.88;;;10.30;99.90;;;;;;4937537;29;20087;-84
2021/12/15 11:36:08;;;;;;;50.65;27.63;;;10.30;99.90;;;;;;4937293;29;20086;-85
2021/12/15 11:38:57;;;;;;;49.37;27.20;;;10.40;99.90;;;;;;4936691;29;20079;-86
2021/12/15 11:41:31;;;;;;;46.97;25.92;;;10.40;99.90;;;;;;4938037;29;20039;-85
2021/12/15 11:44:00;;;;;;;48.63;27.35;;;10.40;99.90;;;;;;4961065;29;20028;-85
2021/12/15 11:46:31;;;;;;;45.80;26.03;;;10.40;99.90;;;;;;4952954;29;20042;-83
2021/12/15 11:49:10;;;;;;;49.45;26.35;;;10.40;99.90;;;;;;4938359;29;20452;-83
2021/12/15 11:51:44;;;;;;;47.80;25.95;;;10.50;99.90;;;;;;4937479;29;20055;-84
2021/12/15 11:54:39;;;;;;;46.85;26.08;;;10.50;99.90;;;;;;4936739;29;20047;-84
2021/12/15 11:57:18;;;;;;;;;;;10.50;99.90;;;;;;4936934;29;20059;-84
2021/12/15 11:59:50;;;;;;;48.50;24.83;;;10.40;99.90;;;;;;4935883;29;20371;-84
2021/12/15 12:02:30;;;;;;;48.58;26.15;;;10.50;99.90;;;;;;4938337;29;20432;-83
2021/12/15 12:05:03;;;;;;;43.73;24.23;;;10.50;99.90;;;;;;4936707;29;20061;-83
2021/12/15 12:07:48;;;;;;;45.30;24.98;;;10.50;99.90;;;;;;4935551;29;20142;-83
2021/12/15 12:10:26;;;;;;;46.38;25.83;;;10.50;99.90;;;;;;4937953;29;20047;-83
2021/12/15 12:13:08;;;;;;;45.53;25.67;;;10.50;99.90;;;;;;4902553;29;20048;-83
2021/12/15 12:15:44;;;;;;;46.53;26.03;;;10.50;99.90;;;;;;4926463;29;20553;-83
2021/12/15 12:18:17;;;;;;;43.63;24.30;;;10.40;99.90;;;;;;4918629;29;20568;-82
2021/12/15 12:20:49;;;;;;;45.00;24.50;;;10.40;99.90;;;;;;4919535;29;20066;-82
2021/12/15 12:23:19;;;;;;;46.00;24.70;;;10.30;99.90;;;;;;4920088;29;20043;-83
2021/12/15 12:25:48;;;;;;;43.60;24.80;;;10.30;99.90;;;;;;4919779;29;20047;-82
2021/12/15 12:28:21;;;;;;;44.50;24.70;;;10.30;99.90;;;;;;4916053;29;20130;-82
2021/12/15 12:30:51;;;;;;;44.40;24.80;;;10.40;99.90;;;;;;4899835;29;20048;-82
2021/12/15 12:33:20;;;;;;;43.88;24.00;;;10.40;99.90;;;;;;4917332;29;20044;-82
2021/12/15 12:36:01;;;;;;;39.70;22.98;;;10.40;99.90;;;;;;4900146;29;20126;-82
2021/12/15 12:38:29;;;;;;;39.92;23.10;;;10.40;99.90;;;;;;4901265;29;20456;-82
2021/12/15 12:41:19;;;;;;;42.10;22.95;;;10.40;99.90;;;;;;4917706;29;20462;-82
2021/12/15 12:43:48;;;;;;;38.55;22.00;;;10.50;99.90;;;;;;4916386;29;20489;-82
2021/12/15 12:46:28;;;;;;;39.33;22.40;;;10.50;99.90;;;;;;4918080;29;20096;-82
2021/12/15 12:58:01;;;;;;;31.80;18.35;;;10.50;99.90;;;;;;4918104;29;20048;-83
2021/12/15 13:00:36;;;;;;;34.00;19.17;;;10.50;99.90;;;;;;4902113;29;20088;-84
2021/12/15 13:03:08;;;;;;;32.73;17.33;;;10.50;99.90;;;;;;4918599;29;20500;-84
2021/12/15 13:05:39;;;;;;;30.95;18.58;;;10.50;99.90;;;;;;4919241;29;20062;-85
2021/12/15 13:08:12;;;;;;;29.83;17.47;;;10.50;99.90;;;;;;4931299;29;20059;-85
2021/12/15 13:10:47;;;;;;;30.63;17.83;;;10.50;99.90;;;;;;4934421;29;20503;-85
2021/12/15 13:13:19;;;;;;;28.42;16.75;;;10.50;99.90;;;;;;4934954;29;20110;-84
2021/12/15 13:15:53;;;;;;;30.27;17.00;;;10.40;99.90;;;;;;4934773;29;20145;-85
2021/12/15 13:18:19;;;;;;;28.73;17.30;;;10.40;99.90;;;;;;4934336;29;20106;-84
2021/12/15 13:20:55;;;;;;;29.37;17.27;;;10.40;99.90;;;;;;4934820;29;20051;-85
2021/12/15 13:23:39;;;;;;;30.05;17.38;;;10.40;99.90;;;;;;4934225;29;20086;-84
2021/12/15 13:28:51;;;;;;;27.47;15.47;;;10.40;99.90;;;;;;4935867;29;20056;-85
2021/12/15 13:31:23;;;;;;;28.63;15.70;;;10.40;99.90;;;;;;4933508;29;20120;-86
2021/12/15 13:33:52;;;;;;;29.67;16.83;;;11.10;99.90;;;;;;4934774;29;20087;-86
2021/12/15 13:36:23;;;;;;;28.23;17.13;;;10.40;99.90;;;;;;4934657;29;20047;-86
2021/12/15 13:38:57;;;;;;;29.27;15.77;;;10.40;99.90;;;;;;4934913;29;20107;-84
2021/12/15 13:44:35;;;;;;;29.83;16.63;;;10.40;99.90;;;;;;4935254;29;19979;-84
2021/12/15 13:47:07;;;;;;;28.08;16.38;;;10.30;99.90;;;;;;4934708;29;20056;-86
2021/12/15 13:49:50;;;;;;;29.80;16.60;;;10.30;99.90;;;;;;4934722;29;20058;-83
2021/12/15 13:52:39;;;;;;;29.88;16.02;;;10.30;99.90;;;;;;4933112;29;20131;-83
2021/12/15 13:55:11;;;;;;;28.17;16.20;;;10.20;99.90;;;;;;4935117;29;20059;-82
2021/12/15 13:58:08;;;;;;;27.02;15.55;;;10.30;99.90;;;;;;4931377;29;20055;-82
2021/12/15 14:00:49;;;;;;;30.00;15.88;;;10.20;99.90;;;;;;4932177;29;20054;-82
2021/12/15 14:03:25;;;;;;;26.03;14.93;;;10.30;99.90;;;;;;4930674;29;20047;-82
2021/12/15 14:05:56;;;;;;;27.10;14.43;;;10.20;99.90;;;;;;4932448;29;20437;-82
2021/12/15 14:08:34;;;;;;;26.30;14.10;;;10.20;99.90;;;;;;4931579;29;20074;-83
2021/12/15 14:11:07;;;;;;;27.70;14.20;;;10.20;99.90;;;;;;4928726;29;20056;-83
2021/12/15 14:14:00;;;;;;;18.93;9.97;;;10.20;99.90;;;;;;4933214;29;20040;-83
2021/12/15 14:16:41;;;;;;;17.05;9.05;;;10.20;99.90;;;;;;4926204;29;20412;-81
2021/12/15 14:19:32;;;;;;;15.77;8.30;;;10.20;99.90;;;;;;4932368;29;20047;-82